createdAt,value
2018-07-29T00:03:54.622Z,96.70
2018-07-29T00:08:58.695Z,96.30
2018-07-29T00:19:09.032Z,96.30
2018-07-29T00:24:13.098Z,96.50
2018-07-29T00:29:17.149Z,95.80
2018-07-29T00:34:21.208Z,96.60
2018-07-29T00:39:25.272Z,95.60
2018-07-29T00:44:29.397Z,96.20
2018-07-29T00:49:33.491Z,96.10
2018-07-29T00:54:37.525Z,96.50
2018-07-29T00:59:41.573Z,96.60
2018-07-29T01:04:45.616Z,96.90
2018-07-29T01:09:49.694Z,96.60
2018-07-29T01:14:53.748Z,96.90
2018-07-29T01:19:57.955Z,96.90
2018-07-29T01:30:07.278Z,96.60
2018-07-29T01:35:11.454Z,96.60
2018-07-29T01:40:15.566Z,96.40
2018-07-29T01:45:19.707Z,97.00
2018-07-29T01:55:27.837Z,97.10
2018-07-29T02:00:31.942Z,97.20
2018-07-29T02:05:35.994Z,97.60
2018-07-29T02:10:40.070Z,97.20
2018-07-29T02:15:44.365Z,97.10
2018-07-29T02:20:48.437Z,97.00
2018-07-29T02:25:52.487Z,97.10
2018-07-29T02:36:00.812Z,97.50
2018-07-29T02:41:04.866Z,98.10
2018-07-29T02:46:08.939Z,98.30
2018-07-29T02:51:12.990Z,97.70
2018-07-29T02:56:17.622Z,97.40
2018-07-29T03:01:21.662Z,97.90
2018-07-29T03:06:25.736Z,98.00
2018-07-29T03:11:29.794Z,97.90
2018-07-29T03:16:33.839Z,97.90
2018-07-29T03:21:37.884Z,98.40
2018-07-29T03:31:45.733Z,98.30
2018-07-29T03:36:49.792Z,98.90
2018-07-29T03:52:01.491Z,98.30
2018-07-29T03:57:05.528Z,98.10
2018-07-29T04:02:09.572Z,97.80
2018-07-29T04:07:13.608Z,97.20
2018-07-29T04:12:17.661Z,97.00
2018-07-29T04:17:21.697Z,96.80
2018-07-29T04:22:25.742Z,97.00
2018-07-29T04:27:29.768Z,97.20
2018-07-29T04:37:37.632Z,97.10
2018-07-29T04:47:45.526Z,96.80
2018-07-29T04:52:49.569Z,96.60
2018-07-29T04:57:53.612Z,96.60
2018-07-29T05:02:57.645Z,95.60
2018-07-29T05:08:01.680Z,95.90
2018-07-29T05:13:05.829Z,96.10
2018-07-29T05:23:13.669Z,95.80
2018-07-29T05:28:18.343Z,95.70
2018-07-29T05:33:22.369Z,95.60
2018-07-29T05:38:26.473Z,95.60
2018-07-29T05:43:30.564Z,95.50
2018-07-29T05:58:42.276Z,95.60
2018-07-29T06:08:50.134Z,96.00
2018-07-29T06:13:54.165Z,94.70
2018-07-29T06:18:58.249Z,94.40
2018-07-29T06:34:10.225Z,94.00
2018-07-29T06:39:14.264Z,93.50
2018-07-29T06:44:18.326Z,94.00
2018-07-29T07:04:34.639Z,94.50
2018-07-29T07:09:38.707Z,94.90
2018-07-29T07:14:42.756Z,93.80
2018-07-29T07:19:46.808Z,92.20
2018-07-29T07:24:50.901Z,91.50
2018-07-29T07:29:54.985Z,91.80
2018-07-29T07:34:59.060Z,91.20
2018-07-29T07:40:03.107Z,90.50
2018-07-29T07:50:10.929Z,90.20
2018-07-29T08:00:18.777Z,89.20
2018-07-29T08:15:30.457Z,86.10
2018-07-29T08:20:34.523Z,82.90
2018-07-29T08:40:50.909Z,76.50
2018-07-29T08:45:54.955Z,78.30
2018-07-29T08:56:03.098Z,74.40
2018-07-29T09:06:10.987Z,71.60
2018-07-29T09:11:16.173Z,72.00
2018-07-29T09:16:20.252Z,71.50
2018-07-29T09:21:24.300Z,70.50
2018-07-29T09:46:43.705Z,67.30
2018-07-29T09:56:51.591Z,69.30
2018-07-29T10:01:55.977Z,67.10
2018-07-29T10:07:00.017Z,68.20
2018-07-29T10:27:15.638Z,62.30
2018-07-29T10:32:19.709Z,61.80
2018-07-29T10:37:23.757Z,62.60
2018-07-29T10:47:31.597Z,62.20
2018-07-29T10:52:35.686Z,62.50
2018-07-29T11:02:43.528Z,60.60
2018-07-29T11:07:47.564Z,61.20
2018-07-29T11:12:51.620Z,62.30
2018-07-29T11:17:55.672Z,62.10
2018-07-29T11:22:59.730Z,61.50
2018-07-29T11:33:08.346Z,62.50
2018-07-29T11:38:12.399Z,61.90
2018-07-29T11:48:20.465Z,63.70
2018-07-29T11:58:28.322Z,61.30
2018-07-29T12:03:32.521Z,60.90
2018-07-29T12:08:37.594Z,60.90
2018-07-29T12:13:41.634Z,60.10
2018-07-29T12:18:45.686Z,60.90
2018-07-29T12:23:49.801Z,59.80
2018-07-29T12:28:53.859Z,60.60
2018-07-29T12:33:57.921Z,59.60
2018-07-29T12:39:01.975Z,59.70
2018-07-29T12:49:09.858Z,57.80
2018-07-29T12:54:13.909Z,58.30
2018-07-29T13:04:21.768Z,57.50
2018-07-29T13:09:25.833Z,58.30
2018-07-29T13:14:29.877Z,56.90
2018-07-29T13:34:45.399Z,55.50
2018-07-29T13:39:49.448Z,55.00
2018-07-29T13:44:53.554Z,52.90
2018-07-29T13:49:57.608Z,52.50
2018-07-29T13:55:01.666Z,51.70
2018-07-29T14:00:09.023Z,51.20
2018-07-29T14:15:20.768Z,51.00
2018-07-29T14:20:24.836Z,50.50
2018-07-29T14:25:28.882Z,50.40
2018-07-29T14:30:32.920Z,50.20
2018-07-29T14:35:37.253Z,51.40
2018-07-29T14:40:41.310Z,51.00
2018-07-29T14:45:45.425Z,50.70
2018-07-29T14:50:49.477Z,47.30
2018-07-29T14:55:53.753Z,48.30
2018-07-29T15:00:57.789Z,48.90
2018-07-29T15:06:01.853Z,49.70
2018-07-29T15:11:06.493Z,50.80
2018-07-29T15:16:10.558Z,51.70
2018-07-29T15:21:14.592Z,51.40
2018-07-29T15:26:18.621Z,51.80
2018-07-29T15:41:30.337Z,51.90
2018-07-29T15:46:34.380Z,51.90
2018-07-29T15:56:42.236Z,51.40
2018-07-29T16:16:58.118Z,50.20
2018-07-29T16:22:02.501Z,50.20
2018-07-29T16:27:06.570Z,50.40
2018-07-29T16:32:10.661Z,50.20
2018-07-29T16:47:22.334Z,50.30
2018-07-29T16:52:26.735Z,50.50
2018-07-29T16:57:30.814Z,50.60
2018-07-29T17:02:35.276Z,51.00
2018-07-29T17:12:43.158Z,51.70
2018-07-29T17:17:47.273Z,52.70
2018-07-29T17:22:51.388Z,52.70
2018-07-29T17:27:55.438Z,53.00
2018-07-29T17:32:59.510Z,51.30
2018-07-29T17:43:07.453Z,51.60
2018-07-29T17:48:11.565Z,52.30
2018-07-29T17:53:15.628Z,52.80
2018-07-29T17:58:19.707Z,53.10
2018-07-29T18:13:31.382Z,55.30
2018-07-29T18:18:35.427Z,56.40
2018-07-29T18:23:39.493Z,54.00
2018-07-29T18:28:43.557Z,51.30
2018-07-29T18:33:47.604Z,51.20
2018-07-29T18:54:04.116Z,53.20
2018-07-29T18:59:08.165Z,54.10
2018-07-29T19:06:21.022Z,57.30
2018-07-29T19:11:24.962Z,61.20
2018-07-29T19:21:32.805Z,64.20
2018-07-29T19:26:36.876Z,66.40
2018-07-29T19:31:40.920Z,68.30
2018-07-29T19:36:44.978Z,68.70
2018-07-29T19:41:49.125Z,70.00
2018-07-29T19:46:53.211Z,72.20
2018-07-29T19:57:01.065Z,73.00
2018-07-29T20:07:08.964Z,74.40
2018-07-29T20:12:13.041Z,72.00
2018-07-29T20:17:17.099Z,73.20
2018-07-29T20:27:25.256Z,75.90
2018-07-29T20:32:29.305Z,78.30
2018-07-29T20:42:37.177Z,78.10
2018-07-29T20:47:41.356Z,78.30
2018-07-29T20:57:49.253Z,80.30
2018-07-29T21:02:53.337Z,82.00
2018-07-29T21:07:57.433Z,82.60
2018-07-29T21:13:01.494Z,84.00
2018-07-29T21:18:05.681Z,84.30
2018-07-29T21:23:09.737Z,85.20
2018-07-29T21:28:13.885Z,87.10
2018-07-29T21:33:17.945Z,87.30
2018-07-29T21:43:25.840Z,89.00
2018-07-29T21:48:29.894Z,88.70
2018-07-29T22:03:41.980Z,89.40
2018-07-29T22:13:49.946Z,90.30
2018-07-29T22:18:54.057Z,90.20
2018-07-29T22:23:58.109Z,90.30
2018-07-29T22:29:07.441Z,90.40
2018-07-29T22:39:15.318Z,90.90
2018-07-29T22:44:19.369Z,91.00
2018-07-29T22:49:23.412Z,91.50
2018-07-29T22:54:27.462Z,91.40
2018-07-29T23:04:35.617Z,91.80
2018-07-29T23:10:07.527Z,92.20
2018-07-29T23:15:11.734Z,92.00
2018-07-29T23:25:19.597Z,92.00
2018-07-29T23:30:23.704Z,91.80
2018-07-29T23:35:27.764Z,92.10
2018-07-29T23:40:31.797Z,92.30
2018-07-29T23:45:35.849Z,92.60
2018-07-29T23:50:39.905Z,92.60
2018-07-29T23:55:44.008Z,92.90
